Time;durP1;ratioP1;P1;durP2;ratioP2;P2;SDS_P1;SDS_P2;PMS_P1;PMS_P2;Temp;Humidity;BMP_temperature;BMP_pressure;BME280_temperature;BME280_humidity;BME280_pressure;Samples;Min_cycle;Max_cycle;Signal;HPM_P1;HPM_P2
2021/07/23 00:02:23;;;;;;;10.70;9.60;;;20.80;99.90;;;;;;6127161;23;20178;-65
2021/07/23 00:04:49;;;;;;;11.03;9.53;;;20.70;99.90;;;;;;6126996;23;20194;-68
2021/07/23 00:07:15;;;;;;;10.63;9.63;;;20.70;99.90;;;;;;6127027;23;20256;-68
2021/07/23 00:09:41;;;;;;;13.53;10.30;;;20.60;99.90;;;;;;6125363;23;20186;-68
2021/07/23 00:12:06;;;;;;;12.90;11.40;;;20.60;99.90;;;;;;6127028;23;20259;-65
2021/07/23 00:14:32;;;;;;;11.33;10.13;;;20.70;99.90;;;;;;6127108;23;20223;-65
2021/07/23 00:16:58;;;;;;;12.10;10.30;;;20.60;99.90;;;;;;6126906;23;20190;-65
2021/07/23 00:19:24;;;;;;;11.03;9.33;;;20.60;99.90;;;;;;6127009;23;20409;-66
2021/07/23 00:21:49;;;;;;;12.67;10.30;;;20.60;99.90;;;;;;6126945;23;20211;-68
2021/07/23 00:24:16;;;;;;;10.93;9.83;;;20.50;99.90;;;;;;6126811;23;20565;-68
2021/07/23 00:26:41;;;;;;;14.13;10.73;;;20.50;99.90;;;;;;6126962;23;20511;-68
2021/07/23 00:29:07;;;;;;;13.73;9.93;;;20.50;99.90;;;;;;6126773;23;20393;-69
2021/07/23 00:31:33;;;;;;;14.10;10.00;;;20.50;99.90;;;;;;6126710;23;20254;-65
2021/07/23 00:33:58;;;;;;;11.27;10.07;;;20.50;99.90;;;;;;6126452;23;20222;-68
2021/07/23 00:36:24;;;;;;;12.27;10.83;;;20.50;99.90;;;;;;6126825;23;20179;-65
2021/07/23 00:38:49;;;;;;;13.67;11.10;;;20.40;99.90;;;;;;6126741;23;20234;-68
2021/07/23 00:41:15;;;;;;;11.67;10.10;;;20.40;99.90;;;;;;6127638;23;20150;-68
2021/07/23 00:43:41;;;;;;;11.97;10.33;;;20.40;99.90;;;;;;6128514;23;20191;-68
2021/07/23 00:46:06;;;;;;;13.27;11.43;;;20.40;99.90;;;;;;6128808;23;20159;-65
2021/07/23 00:48:33;;;;;;;11.37;10.13;;;20.40;99.90;;;;;;6127037;23;20222;-66
2021/07/23 00:50:59;;;;;;;12.53;10.43;;;20.40;99.90;;;;;;6128296;23;20152;-65
2021/07/23 00:53:25;;;;;;;13.10;11.07;;;20.30;99.90;;;;;;6128506;23;20457;-66
2021/07/23 00:55:56;;;;;;;15.43;12.47;;;20.20;99.90;;;;;;6126852;23;20163;-65
2021/07/23 00:58:23;;;;;;;13.80;10.73;;;20.20;99.90;;;;;;6128980;23;20504;-65
2021/07/23 01:00:49;;;;;;;13.57;11.23;;;20.10;99.90;;;;;;6128541;23;20883;-65
2021/07/23 01:03:16;;;;;;;12.70;11.40;;;20.10;99.90;;;;;;6128839;23;20515;-68
2021/07/23 01:05:41;;;;;;;12.40;10.43;;;20.10;99.90;;;;;;6128459;23;20374;-67
2021/07/23 01:08:07;;;;;;;12.17;10.80;;;20.00;99.90;;;;;;6127030;23;20503;-69
2021/07/23 01:10:37;;;;;;;14.50;9.97;;;20.00;99.90;;;;;;6128483;23;20221;-65
2021/07/23 01:13:03;;;;;;;11.33;10.23;;;20.00;99.90;;;;;;6128840;23;20178;-65
2021/07/23 01:15:29;;;;;;;15.40;11.57;;;20.00;99.90;;;;;;6128542;23;20376;-64
2021/07/23 01:17:54;;;;;;;12.40;11.10;;;19.90;99.90;;;;;;6126418;23;20570;-65
2021/07/23 01:20:25;;;;;;;12.30;11.00;;;19.80;99.90;;;;;;6128263;23;20190;-65
2021/07/23 01:22:53;;;;;;;11.90;10.70;;;19.80;99.90;;;;;;6128468;23;20266;-68
2021/07/23 01:25:20;;;;;;;12.53;11.13;;;19.80;99.90;;;;;;6126693;23;20435;-68
2021/07/23 01:27:50;;;;;;;12.90;11.57;;;19.70;99.90;;;;;;6128676;23;20467;-65
2021/07/23 01:30:17;;;;;;;11.93;10.40;;;19.70;99.90;;;;;;6128248;23;20369;-68
2021/07/23 01:32:43;;;;;;;12.17;10.90;;;19.60;99.90;;;;;;6128543;23;20401;-65
2021/07/23 01:35:09;;;;;;;15.33;12.37;;;19.70;99.90;;;;;;6127801;23;20996;-65
2021/07/23 01:37:35;;;;;;;14.87;11.33;;;19.60;99.90;;;;;;6128475;23;20177;-68
2021/07/23 01:40:01;;;;;;;13.77;11.67;;;19.60;99.90;;;;;;6128079;23;20399;-68
2021/07/23 01:42:28;;;;;;;14.00;11.50;;;19.50;99.90;;;;;;6126381;23;20419;-65
2021/07/23 01:44:54;;;;;;;16.30;11.77;;;19.50;99.90;;;;;;6128096;23;20846;-65
2021/07/23 01:47:20;;;;;;;15.90;12.30;;;19.40;99.90;;;;;;6128270;23;20423;-65
2021/07/23 01:49:45;;;;;;;16.30;10.90;;;19.40;99.90;;;;;;6126288;23;20432;-65
2021/07/23 01:52:11;;;;;;;17.60;11.73;;;19.40;99.90;;;;;;6127703;23;20245;-68
2021/07/23 01:54:37;;;;;;;13.33;10.93;;;19.40;99.90;;;;;;6127925;23;20239;-67
2021/07/23 01:57:03;;;;;;;13.80;11.70;;;19.40;99.90;;;;;;6128044;23;20178;-68
2021/07/23 01:59:29;;;;;;;12.57;11.10;;;19.30;99.90;;;;;;6128155;23;20228;-65
2021/07/23 02:01:56;;;;;;;13.87;12.40;;;19.30;99.90;;;;;;6128017;23;20424;-65
2021/07/23 02:04:22;;;;;;;13.83;11.67;;;19.30;99.90;;;;;;6128107;23;20490;-64
2021/07/23 02:06:48;;;;;;;16.17;11.97;;;19.20;99.90;;;;;;6127936;23;20475;-65
2021/07/23 02:09:13;;;;;;;16.83;11.53;;;19.30;99.90;;;;;;6127721;23;20384;-65
2021/07/23 02:11:39;;;;;;;15.33;11.77;;;19.20;99.90;;;;;;6127805;23;20180;-65
2021/07/23 02:14:07;;;;;;;15.17;12.03;;;19.20;99.90;;;;;;6127687;23;20180;-65
2021/07/23 02:16:34;;;;;;;15.30;11.70;;;19.20;99.90;;;;;;6127853;23;20188;-68
2021/07/23 02:18:59;;;;;;;17.00;12.57;;;19.20;99.90;;;;;;6126190;23;20398;-68
2021/07/23 02:21:25;;;;;;;13.43;11.37;;;19.20;99.90;;;;;;6126091;23;20863;-65
2021/07/23 02:23:50;;;;;;;15.60;12.57;;;19.20;99.90;;;;;;6127504;23;20192;-66
2021/07/23 02:26:20;;;;;;;17.83;11.60;;;19.10;99.90;;;;;;6127449;23;20156;-65
2021/07/23 02:28:47;;;;;;;14.63;12.73;;;19.10;99.90;;;;;;6127633;23;20160;-65
2021/07/23 02:31:12;;;;;;;17.10;13.17;;;19.10;99.90;;;;;;6125867;23;20431;-65
2021/07/23 02:33:39;;;;;;;16.77;12.27;;;19.00;99.90;;;;;;6127349;23;20370;-68
2021/07/23 02:36:05;;;;;;;17.40;12.40;;;19.00;99.90;;;;;;6127472;23;20169;-68
2021/07/23 02:38:31;;;;;;;15.40;12.00;;;19.00;99.90;;;;;;6127705;23;20370;-67
2021/07/23 02:40:56;;;;;;;13.40;11.17;;;19.00;99.90;;;;;;6127496;23;20464;-68
2021/07/23 02:43:23;;;;;;;14.80;13.00;;;19.00;99.90;;;;;;6127908;23;20227;-64
2021/07/23 02:45:49;;;;;;;13.20;10.97;;;19.10;99.90;;;;;;6125897;23;20164;-68
2021/07/23 02:48:15;;;;;;;17.20;11.50;;;19.10;99.90;;;;;;6127845;23;20412;-66
2021/07/23 02:50:41;;;;;;;12.40;11.00;;;19.10;99.90;;;;;;6127493;23;20770;-69
2021/07/23 02:53:06;;;;;;;16.03;12.27;;;19.20;99.90;;;;;;6127854;23;20173;-69
2021/07/23 02:55:33;;;;;;;18.30;11.10;;;19.20;99.90;;;;;;6125860;23;20390;-69
2021/07/23 02:57:59;;;;;;;14.23;10.77;;;19.20;99.90;;;;;;6127788;23;20184;-66
2021/07/23 03:00:25;;;;;;;15.27;11.10;;;19.30;99.90;;;;;;6127387;23;20467;-69
2021/07/23 03:02:50;;;;;;;15.07;12.10;;;19.40;99.90;;;;;;6125632;23;20663;-65
2021/07/23 03:05:16;;;;;;;14.73;12.60;;;19.40;99.90;;;;;;6127330;23;20158;-65
2021/07/23 03:07:42;;;;;;;12.53;11.23;;;19.40;99.90;;;;;;6127653;23;20217;-65
2021/07/23 03:10:08;;;;;;;13.10;11.80;;;19.50;99.90;;;;;;6127158;23;20379;-69
2021/07/23 03:12:34;;;;;;;15.10;12.40;;;19.50;99.90;;;;;;6127623;23;20248;-65
2021/07/23 03:15:00;;;;;;;15.87;12.83;;;19.50;99.90;;;;;;6127190;23;20371;-66
2021/07/23 03:17:26;;;;;;;13.73;11.97;;;19.50;99.90;;;;;;6127434;23;20426;-65
2021/07/23 03:19:52;;;;;;;13.40;11.00;;;19.40;99.90;;;;;;6127129;23;20461;-65
2021/07/23 03:22:18;;;;;;;14.80;11.53;;;19.40;99.90;;;;;;6127346;23;20177;-69
2021/07/23 03:24:44;;;;;;;14.53;11.53;;;19.40;99.90;;;;;;6125481;23;20484;-69
2021/07/23 03:27:10;;;;;;;16.70;13.20;;;19.40;99.90;;;;;;6127203;23;20726;-65
2021/07/23 03:29:37;;;;;;;14.20;11.70;;;19.30;99.90;;;;;;6125585;23;20698;-65
2021/07/23 03:32:03;;;;;;;14.93;11.20;;;19.20;99.90;;;;;;6125495;23;20448;-65
2021/07/23 03:34:29;;;;;;;21.17;13.13;;;19.20;99.90;;;;;;6126921;23;20479;-68
2021/07/23 03:36:55;;;;;;;15.53;12.37;;;19.20;99.90;;;;;;6127175;23;20403;-69
2021/07/23 03:39:20;;;;;;;17.87;13.70;;;19.20;99.90;;;;;;6125493;23;20161;-66
2021/07/23 03:41:46;;;;;;;19.07;13.33;;;19.20;99.90;;;;;;6125374;23;20182;-68
2021/07/23 03:44:11;;;;;;;14.50;12.10;;;19.20;99.90;;;;;;6126890;23;20268;-69
2021/07/23 03:46:37;;;;;;;14.77;13.03;;;19.20;99.90;;;;;;6127012;23;20185;-65
2021/07/23 03:49:03;;;;;;;15.90;13.47;;;19.20;99.90;;;;;;6126958;23;20162;-65
2021/07/23 03:51:28;;;;;;;17.20;13.50;;;19.20;99.90;;;;;;6127063;23;20176;-70
2021/07/23 03:53:54;;;;;;;19.43;11.80;;;19.20;99.90;;;;;;6126971;23;20236;-66
2021/07/23 03:56:19;;;;;;;17.97;12.70;;;19.20;99.90;;;;;;6125297;23;20182;-65
2021/07/23 03:58:45;;;;;;;17.23;14.50;;;19.20;99.90;;;;;;6126935;23;20170;-65
2021/07/23 04:01:10;;;;;;;15.40;12.30;;;19.20;99.90;;;;;;6126749;23;20158;-69
2021/07/23 04:03:36;;;;;;;15.07;12.03;;;19.20;99.90;;;;;;6124897;23;20245;-69
2021/07/23 04:06:02;;;;;;;17.63;12.90;;;19.20;99.90;;;;;;6126628;23;20164;-69
2021/07/23 04:08:28;;;;;;;14.43;12.53;;;19.20;99.90;;;;;;6126862;23;20153;-69
2021/07/23 04:10:55;;;;;;;14.10;12.57;;;19.30;99.90;;;;;;6126556;23;20223;-65
2021/07/23 04:13:21;;;;;;;15.30;12.10;;;19.30;99.90;;;;;;6125928;23;20525;-65
2021/07/23 04:15:47;;;;;;;14.83;11.63;;;19.30;99.90;;;;;;6126201;23;20435;-66
2021/07/23 04:18:13;;;;;;;15.03;12.03;;;19.40;99.90;;;;;;6125760;23;20192;-68
2021/07/23 04:20:38;;;;;;;17.47;13.67;;;19.40;99.90;;;;;;6125182;23;20455;-69
2021/07/23 04:23:04;;;;;;;14.13;12.43;;;19.40;99.90;;;;;;6128250;23;20196;-67
2021/07/23 04:25:29;;;;;;;14.63;13.00;;;19.40;99.90;;;;;;6127950;23;20156;-68
2021/07/23 04:27:55;;;;;;;20.50;14.00;;;19.40;99.90;;;;;;6127764;23;20207;-65
2021/07/23 04:30:21;;;;;;;23.53;17.27;;;19.40;99.90;;;;;;6124651;23;20245;-68
2021/07/23 04:32:46;;;;;;;23.37;15.50;;;19.50;99.90;;;;;;6127165;23;20202;-70
2021/07/23 04:35:12;;;;;;;15.60;14.00;;;19.50;99.90;;;;;;6126037;23;20193;-69
2021/07/23 04:37:38;;;;;;;16.47;13.60;;;19.50;99.90;;;;;;6127288;23;20179;-66
2021/07/23 04:40:08;;;;;;;15.30;13.50;;;19.50;99.90;;;;;;6127924;23;20410;-69
2021/07/23 04:42:33;;;;;;;19.93;15.00;;;19.50;99.90;;;;;;6126745;23;20186;-66
2021/07/23 04:44:59;;;;;;;16.93;13.97;;;19.60;99.90;;;;;;6125972;23;20386;-67
2021/07/23 04:47:25;;;;;;;14.60;13.03;;;19.60;99.90;;;;;;6125167;23;20221;-65
2021/07/23 04:49:50;;;;;;;15.07;13.43;;;19.70;99.90;;;;;;6128168;23;20254;-69
2021/07/23 04:52:16;;;;;;;18.70;14.30;;;19.80;99.90;;;;;;6128959;23;20177;-65
2021/07/23 04:54:42;;;;;;;17.00;15.20;;;19.80;99.90;;;;;;6128076;23;20656;-67
2021/07/23 04:57:13;;;;;;;16.77;13.83;;;19.90;99.90;;;;;;6124002;23;20193;-65
2021/07/23 04:59:39;;;;;;;27.50;16.43;;;20.00;99.90;;;;;;6125923;23;20361;-69
2021/07/23 05:02:04;;;;;;;111.70;28.07;;;20.00;99.90;;;;;;6125841;23;20426;-65
2021/07/23 05:04:39;;;;;;;77.83;23.60;;;20.10;99.90;;;;;;6125879;23;20244;-65
2021/07/23 05:07:05;;;;;;;21.80;14.50;;;20.10;99.90;;;;;;6126323;23;20176;-69
2021/07/23 05:09:31;;;;;;;16.90;12.67;;;20.20;99.90;;;;;;6125773;23;20407;-66
2021/07/23 05:11:57;;;;;;;19.03;15.03;;;20.20;99.90;;;;;;6124592;23;20179;-65
2021/07/23 05:14:22;;;;;;;15.23;13.63;;;20.30;99.90;;;;;;6124553;23;20160;-66
2021/07/23 05:16:49;;;;;;;16.83;13.63;;;20.30;99.90;;;;;;6124817;23;20468;-69
2021/07/23 05:19:16;;;;;;;14.50;12.53;;;20.40;99.90;;;;;;6125817;23;20186;-65
2021/07/23 05:21:42;;;;;;;21.50;14.47;;;20.50;99.90;;;;;;6125861;23;20413;-65
2021/07/23 05:24:08;;;;;;;17.10;14.33;;;20.60;99.90;;;;;;6125562;23;20463;-65
2021/07/23 05:26:36;;;;;;;16.30;13.87;;;20.60;99.90;;;;;;6126465;23;20425;-65
2021/07/23 05:29:07;;;;;;;14.50;13.00;;;20.70;99.90;;;;;;6124852;23;20377;-65
2021/07/23 05:31:33;;;;;;;15.57;13.93;;;20.80;99.90;;;;;;6124103;23;20492;-65
2021/07/23 05:33:58;;;;;;;14.20;12.70;;;20.80;99.90;;;;;;6123604;23;20924;-65
2021/07/23 05:36:28;;;;;;;19.30;14.40;;;20.90;99.90;;;;;;6124671;23;20191;-69
2021/07/23 05:38:54;;;;;;;14.83;13.23;;;21.00;99.90;;;;;;6125036;23;20163;-65
2021/07/23 05:41:20;;;;;;;16.43;13.03;;;21.10;99.90;;;;;;6126131;23;20452;-69
2021/07/23 05:43:46;;;;;;;21.47;13.33;;;21.10;99.90;;;;;;6125766;23;20429;-66
2021/07/23 05:46:12;;;;;;;16.07;12.60;;;21.10;99.90;;;;;;6123989;23;20491;-66
2021/07/23 05:48:38;;;;;;;14.93;13.20;;;21.20;99.90;;;;;;6119504;23;20415;-69
2021/07/23 05:51:09;;;;;;;20.10;14.37;;;21.30;99.90;;;;;;6118654;23;20179;-69
2021/07/23 05:53:35;;;;;;;14.63;13.13;;;21.30;99.90;;;;;;6121134;23;20363;-70
2021/07/23 05:56:04;;;;;;;14.47;12.80;;;21.40;99.90;;;;;;6123449;23;20709;-66
2021/07/23 05:58:32;;;;;;;15.23;12.47;;;21.50;99.90;;;;;;6125653;23;20366;-65
2021/07/23 06:00:57;;;;;;;22.77;14.03;;;21.50;99.90;;;;;;6124024;23;20425;-70
2021/07/23 06:03:23;;;;;;;14.03;12.53;;;21.60;99.90;;;;;;6123350;23;20764;-66
2021/07/23 06:05:49;;;;;;;13.93;11.60;;;21.70;99.90;;;;;;6123822;23;20164;-69
2021/07/23 06:08:16;;;;;;;13.87;12.10;;;21.70;99.90;;;;;;6123844;23;20421;-70
2021/07/23 06:10:41;;;;;;;12.07;10.80;;;21.90;99.90;;;;;;6124240;23;20386;-71
2021/07/23 06:13:09;;;;;;;14.67;11.00;;;21.90;99.90;;;;;;6123735;23;20892;-65
2021/07/23 06:15:35;;;;;;;16.10;10.43;;;22.00;99.90;;;;;;6120803;23;20187;-65
2021/07/23 06:18:01;;;;;;;12.20;10.60;;;22.10;99.90;;;;;;6115634;23;20773;-65
2021/07/23 06:20:26;;;;;;;13.57;11.10;;;22.20;99.90;;;;;;6118109;23;20498;-66
2021/07/23 06:22:55;;;;;;;14.00;11.47;;;22.20;99.90;;;;;;6120172;23;20505;-65
2021/07/23 06:25:22;;;;;;;14.00;11.67;;;22.30;99.90;;;;;;6119784;23;20152;-65
2021/07/23 06:27:48;;;;;;;12.27;10.20;;;22.30;99.90;;;;;;6119954;23;20468;-65
2021/07/23 06:30:14;;;;;;;11.33;10.13;;;22.40;99.90;;;;;;6119153;23;20418;-69
2021/07/23 06:32:40;;;;;;;13.20;10.87;;;22.50;99.90;;;;;;6119844;23;20422;-65
2021/07/23 06:35:07;;;;;;;12.23;10.33;;;22.50;99.90;;;;;;6123020;23;20935;-66
2021/07/23 06:37:32;;;;;;;12.23;11.03;;;22.60;99.90;;;;;;6124401;23;20413;-66
2021/07/23 06:39:58;;;;;;;11.20;9.97;;;22.70;99.90;;;;;;6123040;23;20705;-70
2021/07/23 06:42:25;;;;;;;17.80;9.67;;;22.80;99.90;;;;;;6121153;23;20204;-66
2021/07/23 06:44:52;;;;;;;11.70;9.70;;;22.90;99.90;;;;;;6124468;23;20470;-70
2021/07/23 06:47:18;;;;;;;10.50;9.40;;;23.00;99.90;;;;;;6125193;23;20433;-66
2021/07/23 06:49:44;;;;;;;16.20;9.50;;;23.10;99.90;;;;;;6125118;23;20384;-70
2021/07/23 06:52:10;;;;;;;11.70;9.03;;;23.20;99.90;;;;;;6125062;23;20406;-66
2021/07/23 06:54:36;;;;;;;10.43;8.90;;;23.30;99.90;;;;;;6124791;23;20180;-70
2021/07/23 06:57:05;;;;;;;24.87;12.53;;;23.40;99.90;;;;;;6121795;23;20410;-66
2021/07/23 06:59:32;;;;;;;13.53;9.23;;;23.50;99.90;;;;;;6117435;23;20211;-65
2021/07/23 07:01:59;;;;;;;12.50;8.80;;;23.60;99.90;;;;;;6119412;23;20412;-66
2021/07/23 07:04:25;;;;;;;16.93;9.40;;;23.70;99.90;;;;;;6120869;23;20438;-66
2021/07/23 07:06:56;;;;;;;12.10;8.97;;;23.70;99.90;;;;;;6118048;23;20407;-65
2021/07/23 07:09:26;;;;;;;9.47;8.43;;;23.80;99.90;;;;;;6120776;23;20360;-70
2021/07/23 07:11:52;;;;;;;13.63;10.60;;;23.90;99.90;;;;;;6120940;23;20477;-70
2021/07/23 07:14:21;;;;;;;10.77;9.17;;;24.00;99.90;;;;;;6116231;23;20505;-70
2021/07/23 07:16:47;;;;;;;11.83;8.80;;;24.10;99.90;;;;;;6117301;23;20790;-65
2021/07/23 07:19:12;;;;;;;10.97;9.00;;;24.20;99.90;;;;;;6117751;23;20390;-65
2021/07/23 07:21:38;;;;;;;12.40;8.80;;;24.30;99.90;;;;;;6118401;23;20177;-65
2021/07/23 07:24:04;;;;;;;9.20;8.30;;;24.40;99.90;;;;;;6114681;23;20340;-69
2021/07/23 07:26:30;;;;;;;8.97;8.10;;;24.50;99.90;;;;;;6118916;23;20431;-70
2021/07/23 07:28:56;;;;;;;8.80;7.90;;;24.60;99.90;;;;;;6117666;23;20374;-70
2021/07/23 07:31:21;;;;;;;8.80;7.83;;;24.70;99.90;;;;;;6117181;23;20548;-71
2021/07/23 07:33:47;;;;;;;11.97;7.77;;;24.80;99.90;;;;;;6115967;23;20194;-66
2021/07/23 07:36:17;;;;;;;10.97;7.40;;;24.90;99.90;;;;;;6120609;23;20146;-66
2021/07/23 07:38:43;;;;;;;9.13;8.27;;;25.00;99.90;;;;;;6120908;23;20150;-65
2021/07/23 07:41:09;;;;;;;9.63;7.33;;;25.00;99.90;;;;;;6118875;23;20789;-65
2021/07/23 07:43:35;;;;;;;8.87;7.97;;;25.20;99.90;;;;;;6118357;23;20448;-65
2021/07/23 07:46:00;;;;;;;12.90;8.27;;;25.20;99.90;;;;;;6121507;23;20530;-70
2021/07/23 07:48:26;;;;;;;9.30;8.40;;;25.30;99.90;;;;;;6119838;23;20490;-70
2021/07/23 07:50:51;;;;;;;12.80;8.30;;;25.40;99.90;;;;;;6117105;23;20222;-65
2021/07/23 07:53:17;;;;;;;8.73;6.80;;;25.40;99.90;;;;;;6120657;23;20191;-66
2021/07/23 07:55:43;;;;;;;8.63;7.73;;;25.50;99.90;;;;;;6115216;23;20160;-70
2021/07/23 07:58:08;;;;;;;12.83;7.37;;;25.60;99.90;;;;;;6113483;23;20248;-65
2021/07/23 08:00:34;;;;;;;8.63;7.50;;;25.70;99.90;;;;;;6116527;23;20634;-66
2021/07/23 08:03:00;;;;;;;8.30;7.50;;;25.80;99.90;;;;;;6116090;23;20194;-65
2021/07/23 08:05:25;;;;;;;9.00;7.93;;;25.90;99.90;;;;;;6116465;23;20148;-66
2021/07/23 08:07:56;;;;;;;11.13;8.07;;;26.00;99.90;;;;;;6117133;23;20183;-71
2021/07/23 08:10:24;;;;;;;17.43;15.53;;;26.00;99.90;;;;;;6115411;23;20583;-65
2021/07/23 08:12:53;;;;;;;10.80;8.40;;;26.10;99.90;;;;;;6114323;23;20410;-70
2021/07/23 08:15:20;;;;;;;9.20;8.20;;;26.10;99.90;;;;;;6118840;23;20397;-70
2021/07/23 08:17:45;;;;;;;9.10;8.10;;;26.20;99.90;;;;;;6113828;23;20699;-65
2021/07/23 08:20:12;;;;;;;9.33;8.43;;;26.30;99.90;;;;;;6115381;23;21027;-66
2021/07/23 08:22:38;;;;;;;9.10;8.20;;;26.30;99.90;;;;;;6121725;23;20519;-66
2021/07/23 08:25:04;;;;;;;9.83;8.40;;;26.30;99.90;;;;;;6123414;23;20445;-66
2021/07/23 08:27:30;;;;;;;13.80;9.87;;;26.30;99.90;;;;;;6123520;23;20195;-71
2021/07/23 08:29:55;;;;;;;8.47;7.70;;;26.40;99.90;;;;;;6116897;23;20386;-67
2021/07/23 08:32:21;;;;;;;12.43;8.63;;;26.40;99.90;;;;;;6117145;23;20275;-70
2021/07/23 08:34:47;;;;;;;9.90;8.70;;;26.50;99.90;;;;;;6116974;23;20422;-72
2021/07/23 08:37:13;;;;;;;10.83;8.60;;;26.60;99.90;;;;;;6116899;23;20180;-69
2021/07/23 08:39:38;;;;;;;10.90;8.43;;;26.70;99.90;;;;;;6119124;23;20489;-64
2021/07/23 08:42:26;;;;;;;9.63;8.30;;;26.80;99.90;;;;;;6117353;23;20202;-68
2021/07/23 08:44:52;;;;;;;10.80;8.00;;;26.80;99.90;;;;;;6119621;23;20535;-69
2021/07/23 08:47:19;;;;;;;9.97;8.27;;;26.90;99.90;;;;;;6121059;23;20430;-64
2021/07/23 08:49:44;;;;;;;9.37;8.47;;;27.00;99.90;;;;;;6124943;23;20389;-68
2021/07/23 08:52:10;;;;;;;9.00;8.20;;;27.10;99.90;;;;;;6122737;23;20406;-64
2021/07/23 08:54:36;;;;;;;9.40;8.50;;;27.20;99.90;;;;;;6119801;23;20145;-69
2021/07/23 08:57:03;;;;;;;9.03;8.13;;;27.20;99.90;;;;;;6115652;23;20190;-69
2021/07/23 08:59:30;;;;;;;11.60;8.43;;;27.30;99.90;;;;;;6119122;23;20350;-65
2021/07/23 09:02:07;;;;;;;13.10;8.10;;;27.30;99.90;;;;;;6118745;23;20409;-69
2021/07/23 09:04:35;;;;;;;15.87;8.47;;;27.40;99.90;;;;;;6121258;23;20495;-69
2021/07/23 09:07:15;;;;;;;12.27;8.30;;;27.50;99.90;;;;;;6120763;23;20437;-65
2021/07/23 09:10:04;;;;;;;8.80;8.00;;;27.50;99.90;;;;;;6119952;23;20444;-65
2021/07/23 09:12:46;;;;;;;10.97;8.50;;;27.60;99.90;;;;;;6119118;23;20852;-69
2021/07/23 09:15:16;;;;;;;8.77;7.87;;;27.60;99.90;;;;;;6117631;23;20397;-65
2021/07/23 09:17:42;;;;;;;12.40;8.40;;;27.60;99.90;;;;;;6113712;23;20765;-67
2021/07/23 09:20:08;;;;;;;9.40;8.40;;;27.60;99.90;;;;;;6119168;23;20401;-71
2021/07/23 09:22:54;;;;;;;14.10;8.63;;;27.70;99.90;;;;;;6120745;23;20269;-65
2021/07/23 09:25:39;;;;;;;9.13;8.20;;;27.80;99.90;;;;;;6122079;23;20375;-65
2021/07/23 09:28:28;;;;;;;9.53;8.63;;;27.80;99.90;;;;;;6118052;23;20434;-65
2021/07/23 09:30:56;;;;;;;8.30;7.60;;;28.00;99.90;;;;;;6117222;23;20367;-70
2021/07/23 09:33:29;;;;;;;9.60;7.60;;;28.00;99.90;;;;;;6116660;23;20884;-69
2021/07/23 09:36:02;;;;;;;7.90;7.10;;;28.10;99.90;;;;;;6118216;23;20480;-65
2021/07/23 09:38:37;;;;;;;12.03;10.00;;;28.20;99.90;;;;;;6120446;23;20378;-66
2021/07/23 09:41:05;;;;;;;8.27;7.50;;;28.30;99.90;;;;;;6116269;23;20388;-70
2021/07/23 09:43:38;;;;;;;7.87;7.20;;;28.30;99.90;;;;;;6113749;23;20433;-70
2021/07/23 09:46:16;;;;;;;8.90;8.00;;;28.40;99.90;;;;;;6114346;23;20371;-68
2021/07/23 09:48:41;;;;;;;8.63;7.80;;;28.40;99.30;;;;;;6115318;23;20382;-70
2021/07/23 09:51:07;;;;;;;8.00;7.30;;;28.40;99.90;;;;;;6115439;23;20376;-66
2021/07/23 09:53:35;;;;;;;9.47;7.83;;;28.40;99.70;;;;;;6116340;23;20153;-71
2021/07/23 09:56:04;;;;;;;8.67;7.87;;;28.40;99.90;;;;;;6139754;23;20188;-66
2021/07/23 09:58:30;;;;;;;7.70;7.00;;;28.40;99.90;;;;;;6115687;23;20877;-70
2021/07/23 10:00:57;;;;;;;9.27;8.37;;;28.50;99.50;;;;;;6118011;23;20385;-66
2021/07/23 10:03:26;;;;;;;9.00;8.20;;;28.50;99.70;;;;;;6116022;23;20432;-70
2021/07/23 10:05:56;;;;;;;9.40;8.50;;;28.50;99.20;;;;;;6111845;23;20384;-70
2021/07/23 10:08:29;;;;;;;10.57;8.30;;;28.60;99.20;;;;;;6117741;23;20627;-66
2021/07/23 10:10:56;;;;;;;8.00;7.30;;;28.50;99.90;;;;;;6116961;23;20382;-66
2021/07/23 10:13:23;;;;;;;8.37;7.57;;;28.60;99.90;;;;;;6119235;23;20742;-66
2021/07/23 10:15:49;;;;;;;9.93;8.17;;;28.60;99.90;;;;;;6115514;23;20951;-70
2021/07/23 10:18:16;;;;;;;9.57;7.87;;;28.60;99.90;;;;;;6117874;23;20715;-66
2021/07/23 10:20:44;;;;;;;8.87;7.87;;;28.60;99.40;;;;;;6115918;23;20398;-66
2021/07/23 10:23:10;;;;;;;8.60;7.77;;;28.70;98.90;;;;;;6121063;23;20974;-66
2021/07/23 10:25:37;;;;;;;8.73;7.90;;;28.60;98.20;;;;;;6122765;23;20369;-66
2021/07/23 10:28:03;;;;;;;8.27;7.43;;;28.60;99.90;;;;;;6120076;23;20429;-70
2021/07/23 10:30:31;;;;;;;8.00;7.10;;;28.60;99.90;;;;;;6123059;23;20727;-69
2021/07/23 10:32:57;;;;;;;7.70;7.00;;;28.60;99.20;;;;;;6120556;23;20465;-70
2021/07/23 10:35:26;;;;;;;7.73;6.57;;;28.60;98.00;;;;;;6121334;23;20758;-67
2021/07/23 10:37:54;;;;;;;8.60;7.77;;;28.70;97.10;;;;;;6124773;23;20606;-70
2021/07/23 10:40:31;;;;;;;9.17;7.93;;;28.70;98.40;;;;;;6121746;23;20385;-70
2021/07/23 10:42:57;;;;;;;10.77;7.60;;;28.70;97.60;;;;;;6119979;23;20431;-69
2021/07/23 10:45:39;;;;;;;8.53;6.90;;;28.70;97.60;;;;;;6122464;23;20718;-69
2021/07/23 10:48:05;;;;;;;8.63;7.47;;;28.80;97.60;;;;;;6120350;23;20527;-66
2021/07/23 10:50:42;;;;;;;9.37;8.40;;;28.80;97.50;;;;;;6120853;23;20400;-71
2021/07/23 10:53:43;;;;;;;8.10;7.30;;;28.90;98.10;;;;;;6122420;23;20781;-69
2021/07/23 10:56:09;;;;;;;9.10;8.23;;;28.90;97.50;;;;;;6005664;23;20565;-69
2021/07/23 10:58:34;;;;;;;9.50;8.60;;;28.90;97.90;;;;;;6098554;23;20379;-68
2021/07/23 11:01:02;;;;;;;9.30;8.50;;;28.90;98.00;;;;;;6117451;23;20155;-70
2021/07/23 11:03:37;;;;;;;8.60;7.80;;;28.90;97.40;;;;;;6111684;23;20507;-66
2021/07/23 11:06:25;;;;;;;11.43;7.80;;;28.90;96.60;;;;;;6114576;23;20372;-70
2021/07/23 11:08:55;;;;;;;8.27;7.47;;;28.90;97.30;;;;;;6108611;23;20409;-70
2021/07/23 11:11:26;;;;;;;8.50;7.80;;;28.90;96.90;;;;;;6115568;23;20412;-69
2021/07/23 11:13:52;;;;;;;8.27;7.53;;;28.90;96.20;;;;;;6113486;23;20398;-70
2021/07/23 11:16:20;;;;;;;11.60;8.27;;;28.90;96.40;;;;;;6110368;23;20527;-70
2021/07/23 11:18:59;;;;;;;7.70;6.90;;;28.90;96.20;;;;;;6112534;23;20406;-70
2021/07/23 11:21:34;;;;;;;9.00;8.03;;;28.80;96.40;;;;;;6115209;23;20481;-67
2021/07/23 11:24:01;;;;;;;8.43;7.63;;;28.80;95.80;;;;;;6116770;23;20793;-70
2021/07/23 11:26:27;;;;;;;7.83;6.57;;;28.70;95.80;;;;;;6117942;23;20411;-70
2021/07/23 11:28:56;;;;;;;9.37;7.40;;;28.70;96.40;;;;;;6119700;23;20462;-66
2021/07/23 11:31:32;;;;;;;6.53;6.00;;;28.70;96.50;;;;;;6123539;23;20435;-70
2021/07/23 11:34:00;;;;;;;8.40;7.20;;;28.60;96.50;;;;;;6121196;23;20518;-67
2021/07/23 11:36:33;;;;;;;8.40;6.47;;;28.60;97.70;;;;;;6122258;23;20492;-66
2021/07/23 11:39:05;;;;;;;7.90;6.80;;;28.60;98.10;;;;;;6123495;23;20701;-70
2021/07/23 11:41:31;;;;;;;10.33;6.80;;;28.60;98.10;;;;;;6122949;23;20432;-70
2021/07/23 11:44:10;;;;;;;8.10;7.00;;;28.60;95.70;;;;;;6123030;23;20441;-69
2021/07/23 11:46:37;;;;;;;9.63;7.53;;;28.70;96.20;;;;;;6123362;23;20258;-66
2021/07/23 11:49:03;;;;;;;7.60;6.80;;;28.80;94.60;;;;;;6120439;23;20385;-66
2021/07/23 11:51:41;;;;;;;9.40;6.83;;;28.90;95.00;;;;;;6121727;23;20431;-70
2021/07/23 11:54:08;;;;;;;6.70;6.10;;;28.90;94.90;;;;;;6121224;23;20401;-70
2021/07/23 11:56:33;;;;;;;7.10;6.17;;;28.90;93.40;;;;;;6116553;23;20433;-70
2021/07/23 11:59:03;;;;;;;7.87;6.10;;;28.90;94.30;;;;;;6116763;23;20365;-66
2021/07/23 12:01:33;;;;;;;7.47;6.77;;;29.00;93.50;;;;;;6112899;23;20191;-66
2021/07/23 12:03:58;;;;;;;10.80;7.20;;;29.00;93.40;;;;;;6119031;23;20430;-66
2021/07/23 12:06:29;;;;;;;8.87;7.63;;;29.00;94.00;;;;;;6121868;23;20409;-69
2021/07/23 12:08:57;;;;;;;7.60;6.63;;;29.10;93.90;;;;;;6123933;23;20159;-70
2021/07/23 12:11:23;;;;;;;7.87;7.27;;;29.10;94.30;;;;;;6120510;23;20425;-66
2021/07/23 12:13:52;;;;;;;8.93;6.67;;;29.20;94.50;;;;;;6121949;23;20389;-70
2021/07/23 12:16:18;;;;;;;7.33;6.63;;;29.30;94.40;;;;;;6123113;23;20406;-70
2021/07/23 12:19:03;;;;;;;8.20;7.30;;;29.30;94.10;;;;;;6124552;23;20770;-70
2021/07/23 12:21:29;;;;;;;7.73;6.30;;;29.30;93.30;;;;;;6124172;23;20486;-66
2021/07/23 12:24:04;;;;;;;7.20;6.50;;;29.30;92.40;;;;;;6122246;23;20910;-70
2021/07/23 12:26:31;;;;;;;7.63;6.57;;;29.30;94.30;;;;;;6121728;23;20426;-70
2021/07/23 12:28:58;;;;;;;11.40;7.17;;;29.30;93.50;;;;;;6121024;23;20689;-66
2021/07/23 12:31:25;;;;;;;7.27;6.47;;;29.30;93.60;;;;;;6124058;23;20418;-70
2021/07/23 12:34:10;;;;;;;7.20;6.13;;;29.30;94.20;;;;;;6123449;23;20761;-66
2021/07/23 12:36:40;;;;;;;7.60;7.00;;;29.30;93.20;;;;;;6124670;23;20424;-70
2021/07/23 12:39:06;;;;;;;8.03;6.67;;;29.30;92.60;;;;;;6124795;23;20409;-66